Time;durP1;ratioP1;P1;durP2;ratioP2;P2;SDS_P1;SDS_P2;PMS_P1;PMS_P2;Temp;Humidity;BMP_temperature;BMP_pressure;BME280_temperature;BME280_humidity;BME280_pressure;Samples;Min_cycle;Max_cycle;Signal;HPM_P1;HPM_P2
2021/01/01 00:00:33;;;;;;;41.60;31.48;;;;;;;;;;5058317;28;20210;-89
2021/01/01 00:03:00;;;;;;;43.22;31.15;;;;;;;;;;5063742;28;20272;-88
2021/01/01 00:05:30;;;;;;;38.97;28.90;;;;;;;;;;5077543;28;20181;-90
2021/01/01 00:07:56;;;;;;;34.83;25.90;;;;;;;;;;5041657;28;20246;-89
2021/01/01 00:10:22;;;;;;;33.47;25.75;;;;;;;;;;5073152;28;20251;-89
2021/01/01 00:12:48;;;;;;;39.55;28.75;;;;;;;;;;5057543;28;20709;-90
2021/01/01 00:15:14;;;;;;;33.20;27.05;;;;;;;;;;5056690;28;20212;-89
2021/01/01 00:17:41;;;;;;;40.65;28.13;;;;;;;;;;5078578;28;20227;-89
2021/01/01 00:20:08;;;;;;;38.33;27.63;;;;;;;;;;5047009;28;20381;-88
2021/01/01 00:22:34;;;;;;;35.15;27.45;;;;;;;;;;5069888;28;20165;-89
2021/01/01 00:25:00;;;;;;;31.80;25.80;;;;;;;;;;5073577;28;20616;-91
2021/01/01 00:27:29;;;;;;;35.78;26.23;;;;;;;;;;5077120;28;20189;-90
2021/01/01 00:29:56;;;;;;;39.33;25.50;;;;;;;;;;5065536;28;20189;-90
2021/01/01 00:32:22;;;;;;;38.05;24.60;;;;;;;;;;5050114;28;20185;-90
2021/01/01 00:34:48;;;;;;;34.53;23.05;;;;;;;;;;5039462;28;20173;-90
2021/01/01 00:37:14;;;;;;;35.67;24.02;;;;;;;;;;5076551;28;20185;-89
2021/01/01 00:39:40;;;;;;;38.67;24.92;;;;;;;;;;5061352;28;20188;-90
2021/01/01 00:42:06;;;;;;;38.67;25.55;;;;;;;;;;5079342;28;20217;-90
2021/01/01 00:44:33;;;;;;;36.95;23.83;;;;;;;;;;5081841;28;20275;-90
2021/01/01 00:46:59;;;;;;;30.13;23.75;;;;;;;;;;5045522;28;20173;-90
2021/01/01 00:49:25;;;;;;;33.65;23.42;;;;;;;;;;5080923;28;20212;-90
2021/01/01 00:51:51;;;;;;;29.63;21.90;;;;;;;;;;5076435;28;20272;-90
2021/01/01 00:54:17;;;;;;;27.00;20.48;;;;;;;;;;5062110;28;20189;-90
2021/01/01 00:56:43;;;;;;;32.55;20.90;;;;;;;;;;5080170;28;20288;-90
2021/01/01 00:59:09;;;;;;;25.38;19.33;;;;;;;;;;5078727;28;20192;-88
2021/01/01 01:01:35;;;;;;;25.10;18.60;;;;;;;;;;5044143;28;20219;-90
2021/01/01 01:04:01;;;;;;;29.52;21.15;;;;;;;;;;5074069;28;20186;-90
2021/01/01 01:06:27;;;;;;;27.70;20.08;;;;;;;;;;5068261;28;20192;-91
2021/01/01 01:08:54;;;;;;;29.80;21.70;;;;;;;;;;5082127;28;20185;-87
2021/01/01 01:11:27;;;;;;;29.77;19.95;;;;;;;;;;5066645;28;20370;-86
2021/01/01 01:13:53;;;;;;;22.92;19.88;;;;;;;;;;5044589;28;20196;-90
2021/01/01 01:16:21;;;;;;;26.25;18.45;;;;;;;;;;5076641;28;20203;-90
2021/01/01 01:18:47;;;;;;;23.75;17.40;;;;;;;;;;5074573;28;20186;-90
2021/01/01 01:21:13;;;;;;;30.50;18.50;;;;;;;;;;5065536;28;20194;-90
2021/01/01 01:23:38;;;;;;;27.97;16.77;;;;;;;;;;5065920;28;20192;-90
2021/01/01 01:26:04;;;;;;;24.27;16.67;;;;;;;;;;5067300;28;20420;-87
2021/01/01 01:28:30;;;;;;;25.98;18.23;;;;;;;;;;5076147;28;20185;-90
2021/01/01 01:30:56;;;;;;;27.02;19.08;;;;;;;;;;5072426;28;20178;-90
2021/01/01 01:33:22;;;;;;;22.38;17.80;;;;;;;;;;5066973;28;20190;-89
2021/01/01 01:35:48;;;;;;;29.58;17.13;;;;;;;;;;5073758;28;20264;-90
2021/01/01 01:38:14;;;;;;;17.52;15.52;;;;;;;;;;5049040;28;20178;-89
2021/01/01 01:40:40;;;;;;;20.80;17.23;;;;;;;;;;5075063;28;20603;-90
2021/01/01 01:43:06;;;;;;;21.73;16.87;;;;;;;;;;5075549;28;20500;-88
2021/01/01 01:45:32;;;;;;;24.55;18.33;;;;;;;;;;5076954;28;20432;-89
2021/01/01 01:47:59;;;;;;;28.65;18.85;;;;;;;;;;5064474;28;20263;-85
2021/01/01 01:50:26;;;;;;;27.20;19.10;;;;;;;;;;5079295;28;21754;-90
2021/01/01 01:52:52;;;;;;;31.17;19.02;;;;;;;;;;5043854;28;20267;-90
2021/01/01 01:55:18;;;;;;;27.23;19.23;;;;;;;;;;5070161;28;20205;-90
2021/01/01 01:57:44;;;;;;;26.90;20.08;;;;;;;;;;5069261;28;20181;-89
2021/01/01 02:00:40;;;;;;;22.35;16.95;;;;;;;;;;5075743;28;20182;-84
2021/01/01 02:02:57;;;;;;;29.35;16.58;;;;;;;;;;5063148;28;20186;-89
2021/01/01 02:05:23;;;;;;;22.83;16.48;;;;;;;;;;5063537;28;20177;-89
2021/01/01 02:07:49;;;;;;;21.98;15.30;;;;;;;;;;5061032;28;20188;-89
2021/01/01 02:10:15;;;;;;;25.83;15.85;;;;;;;;;;5074996;28;20227;-89
2021/01/01 02:12:42;;;;;;;23.20;16.70;;;;;;;;;;5059652;28;20193;-89
2021/01/01 02:15:08;;;;;;;21.98;16.13;;;;;;;;;;5068422;28;20205;-88
2021/01/01 02:17:34;;;;;;;24.88;16.35;;;;;;;;;;5059370;28;20181;-90
2021/01/01 02:20:07;;;;;;;20.60;16.15;;;;;;;;;;5059781;28;20512;-89
2021/01/01 02:22:37;;;;;;;20.42;15.18;;;;;;;;;;5065051;28;20185;-89
2021/01/01 02:25:07;;;;;;;20.63;16.13;;;;;;;;;;5045911;28;20197;-89
2021/01/01 02:27:33;;;;;;;23.38;15.50;;;;;;;;;;5075221;28;20211;-89
2021/01/01 02:29:59;;;;;;;22.65;16.60;;;;;;;;;;5060531;28;20189;-89
2021/01/01 02:32:24;;;;;;;24.77;17.77;;;;;;;;;;5078501;28;20185;-89
2021/01/01 02:34:50;;;;;;;19.85;14.98;;;;;;;;;;5043092;28;20416;-89
2021/01/01 02:37:16;;;;;;;24.52;15.98;;;;;;;;;;5075497;28;20188;-89
2021/01/01 02:39:42;;;;;;;30.25;18.10;;;;;;;;;;5069809;28;20253;-89
2021/01/01 02:42:09;;;;;;;26.67;18.40;;;;;;;;;;5045210;28;20185;-89
2021/01/01 02:44:35;;;;;;;32.30;19.05;;;;;;;;;;5078063;28;20243;-88
2021/01/01 02:47:04;;;;;;;23.00;17.80;;;;;;;;;;5076242;28;20177;-89
2021/01/01 02:49:31;;;;;;;22.40;16.95;;;;;;;;;;5075278;28;20185;-89
2021/01/01 02:51:57;;;;;;;28.10;19.98;;;;;;;;;;5074604;28;20197;-90
2021/01/01 02:54:23;;;;;;;29.67;19.10;;;;;;;;;;5076810;28;20189;-89
2021/01/01 02:56:49;;;;;;;29.33;20.35;;;;;;;;;;5073685;28;20228;-88
2021/01/01 02:59:15;;;;;;;30.52;19.45;;;;;;;;;;5076816;28;20172;-89
2021/01/01 03:01:41;;;;;;;28.60;19.23;;;;;;;;;;5059851;28;20597;-89
2021/01/01 03:04:07;;;;;;;28.33;19.52;;;;;;;;;;5074782;28;20228;-89
2021/01/01 03:06:33;;;;;;;26.73;19.90;;;;;;;;;;5074472;28;20189;-89
2021/01/01 03:08:59;;;;;;;22.15;18.10;;;;;;;;;;5047606;28;20190;-89
2021/01/01 03:11:24;;;;;;;28.88;19.83;;;;;;;;;;5077902;28;20197;-88
2021/01/01 03:13:51;;;;;;;20.30;18.10;;;;;;;;;;5060407;28;20180;-84
2021/01/01 03:16:16;;;;;;;26.38;18.65;;;;;;;;;;5074731;28;20299;-89
2021/01/01 03:18:42;;;;;;;22.60;18.20;;;;;;;;;;5058807;28;20192;-88
2021/01/01 03:21:08;;;;;;;26.95;17.88;;;;;;;;;;5074604;28;20208;-89
2021/01/01 03:23:34;;;;;;;24.88;18.88;;;;;;;;;;5078903;28;20187;-88
2021/01/01 03:26:00;;;;;;;29.20;18.70;;;;;;;;;;5060378;28;20279;-89
2021/01/01 03:28:26;;;;;;;22.67;17.35;;;;;;;;;;5074367;28;20181;-89
2021/01/01 03:30:52;;;;;;;26.27;18.52;;;;;;;;;;5058690;28;20185;-89
2021/01/01 03:33:18;;;;;;;30.67;17.88;;;;;;;;;;5062001;28;20670;-89
2021/01/01 03:35:44;;;;;;;25.85;16.02;;;;;;;;;;5064175;28;20244;-89
2021/01/01 03:38:10;;;;;;;22.88;16.52;;;;;;;;;;5047461;28;20261;-88
2021/01/01 03:40:36;;;;;;;22.50;16.42;;;;;;;;;;5048486;28;20230;-88
2021/01/01 03:43:02;;;;;;;20.38;16.60;;;;;;;;;;5070156;28;20284;-89
2021/01/01 03:45:31;;;;;;;24.17;16.77;;;;;;;;;;5074401;28;20283;-89
2021/01/01 03:47:57;;;;;;;27.13;18.02;;;;;;;;;;5078544;28;20184;-89
2021/01/01 03:50:24;;;;;;;24.88;18.10;;;;;;;;;;5062072;28;20799;-88
2021/01/01 03:52:50;;;;;;;23.98;17.13;;;;;;;;;;5041712;28;20205;-88
2021/01/01 03:55:16;;;;;;;24.20;16.58;;;;;;;;;;5075505;28;20220;-88
2021/01/01 03:57:42;;;;;;;23.52;16.85;;;;;;;;;;5077285;28;20189;-88
2021/01/01 04:00:08;;;;;;;27.17;18.25;;;;;;;;;;5062505;28;20189;-87
2021/01/01 04:02:34;;;;;;;25.65;18.55;;;;;;;;;;5073432;28;20189;-85
2021/01/01 04:05:00;;;;;;;25.63;17.13;;;;;;;;;;5079721;28;20264;-89
2021/01/01 04:07:26;;;;;;;22.30;17.30;;;;;;;;;;5078134;28;20188;-89
2021/01/01 04:09:52;;;;;;;22.35;17.80;;;;;;;;;;5074458;28;20230;-89
2021/01/01 04:12:19;;;;;;;28.02;18.65;;;;;;;;;;5040248;28;20201;-88
2021/01/01 04:14:45;;;;;;;23.55;17.73;;;;;;;;;;5046051;28;20192;-89
2021/01/01 04:17:11;;;;;;;25.48;19.25;;;;;;;;;;5044207;28;20201;-88
2021/01/01 04:19:37;;;;;;;22.45;17.25;;;;;;;;;;5074347;28;20249;-89
2021/01/01 04:22:03;;;;;;;24.90;16.48;;;;;;;;;;5037095;28;20224;-89
2021/01/01 04:24:29;;;;;;;28.52;18.05;;;;;;;;;;5034402;28;20182;-88
2021/01/01 04:26:55;;;;;;;22.00;15.90;;;;;;;;;;5044887;28;20244;-88
2021/01/01 04:29:21;;;;;;;19.52;14.52;;;;;;;;;;5077646;28;20432;-88
2021/01/01 04:31:47;;;;;;;27.25;15.60;;;;;;;;;;5041562;28;20213;-89
2021/01/01 04:34:13;;;;;;;22.45;16.13;;;;;;;;;;5042081;28;20194;-89
2021/01/01 04:36:39;;;;;;;18.65;13.38;;;;;;;;;;5040367;28;20205;-89
2021/01/01 04:39:06;;;;;;;21.08;14.35;;;;;;;;;;5043266;28;20182;-89
2021/01/01 04:41:35;;;;;;;19.45;13.45;;;;;;;;;;5029836;28;20513;-88
2021/01/01 04:44:01;;;;;;;20.90;13.45;;;;;;;;;;5055518;28;20178;-89
2021/01/01 04:46:27;;;;;;;18.88;13.93;;;;;;;;;;5066273;28;20190;-89
2021/01/01 04:48:53;;;;;;;19.30;13.15;;;;;;;;;;5041586;28;20201;-89
2021/01/01 04:51:19;;;;;;;17.58;13.63;;;;;;;;;;5039729;28;20282;-89
2021/01/01 04:53:47;;;;;;;21.33;13.68;;;;;;;;;;5044481;28;20193;-88
2021/01/01 04:56:13;;;;;;;24.80;15.63;;;;;;;;;;5042501;28;20211;-88
2021/01/01 04:58:39;;;;;;;18.33;13.82;;;;;;;;;;5045307;28;20178;-90
2021/01/01 05:01:05;;;;;;;15.10;12.60;;;;;;;;;;5036449;28;20217;-88
2021/01/01 05:03:32;;;;;;;21.50;15.25;;;;;;;;;;5033057;28;20202;-89
2021/01/01 05:05:58;;;;;;;23.00;15.80;;;;;;;;;;5042847;28;20241;-89
2021/01/01 05:08:24;;;;;;;24.40;15.50;;;;;;;;;;5044338;28;20578;-89
2021/01/01 05:10:50;;;;;;;18.73;14.02;;;;;;;;;;5040583;28;20221;-87
2021/01/01 05:13:17;;;;;;;22.85;16.27;;;;;;;;;;5035144;28;20197;-89
2021/01/01 05:15:44;;;;;;;23.35;16.70;;;;;;;;;;5038350;28;20237;-89
2021/01/01 05:18:17;;;;;;;20.30;14.68;;;;;;;;;;5040861;28;20247;-89
2021/01/01 05:20:44;;;;;;;26.60;15.50;;;;;;;;;;5042795;28;20188;-90
2021/01/01 05:23:26;;;;;;;24.73;15.52;;;;;;;;;;5041627;28;20181;-88
2021/01/01 05:26:09;;;;;;;16.17;14.05;;;;;;;;;;5040859;28;20212;-90
2021/01/01 05:28:51;;;;;;;19.00;14.30;;;;;;;;;;5065518;28;20190;-88
2021/01/01 05:31:18;;;;;;;24.38;16.80;;;;;;;;;;5038335;28;20190;-89
2021/01/01 05:33:51;;;;;;;21.33;15.00;;;;;;;;;;5034374;28;20231;-89
2021/01/01 05:36:17;;;;;;;18.88;13.25;;;;;;;;;;5043745;28;20202;-89
2021/01/01 05:38:42;;;;;;;21.27;13.52;;;;;;;;;;5059553;28;20190;-90
2021/01/01 05:41:08;;;;;;;21.73;14.25;;;;;;;;;;5041302;28;20176;-89
2021/01/01 05:43:34;;;;;;;18.55;13.80;;;;;;;;;;5039371;28;20261;-89
2021/01/01 05:46:07;;;;;;;21.60;13.50;;;;;;;;;;5038113;28;20676;-89
2021/01/01 05:48:33;;;;;;;17.23;12.02;;;;;;;;;;5037368;28;20186;-89
2021/01/01 05:51:06;;;;;;;22.00;13.73;;;;;;;;;;5041370;28;20639;-90
2021/01/01 05:53:33;;;;;;;15.95;12.38;;;;;;;;;;5028897;28;20615;-89
2021/01/01 05:56:08;;;;;;;18.13;13.43;;;;;;;;;;5040948;28;20197;-88
2021/01/01 05:58:34;;;;;;;17.55;13.35;;;;;;;;;;5049023;28;20194;-89
2021/01/01 06:01:02;;;;;;;20.27;14.10;;;;;;;;;;5036684;28;20181;-89
2021/01/01 06:03:35;;;;;;;22.67;13.80;;;;;;;;;;5040117;28;20181;-90
2021/01/01 06:06:04;;;;;;;23.52;13.63;;;;;;;;;;5043412;28;20182;-90
2021/01/01 06:08:31;;;;;;;20.45;15.02;;;;;;;;;;5027773;28;20185;-89
2021/01/01 06:11:01;;;;;;;18.55;12.90;;;;;;;;;;5057869;28;20228;-89
2021/01/01 06:13:31;;;;;;;20.55;13.95;;;;;;;;;;5065941;28;20194;-90
2021/01/01 06:15:58;;;;;;;19.13;13.02;;;;;;;;;;5070344;28;20204;-89
2021/01/01 06:18:31;;;;;;;24.23;14.32;;;;;;;;;;5060020;28;20193;-89
2021/01/01 06:20:58;;;;;;;20.48;14.05;;;;;;;;;;5076989;28;20196;-89
2021/01/01 06:23:31;;;;;;;26.48;14.13;;;;;;;;;;5078255;28;20197;-89
2021/01/01 06:25:58;;;;;;;20.23;13.07;;;;;;;;;;5042625;28;20169;-90
2021/01/01 06:28:24;;;;;;;21.52;12.90;;;;;;;;;;5075119;28;20327;-87
2021/01/01 06:30:51;;;;;;;20.17;13.20;;;;;;;;;;5074931;28;20184;-85
2021/01/01 06:33:17;;;;;;;21.15;14.00;;;;;;;;;;5075404;28;20202;-90
2021/01/01 06:35:43;;;;;;;19.92;13.18;;;;;;;;;;5078417;28;20258;-88
2021/01/01 06:38:09;;;;;;;25.50;14.45;;;;;;;;;;5062555;28;20178;-90
2021/01/01 06:40:37;;;;;;;19.58;13.48;;;;;;;;;;5042744;28;20644;-84
2021/01/01 06:43:05;;;;;;;22.75;14.32;;;;;;;;;;5074899;28;20185;-90
2021/01/01 06:45:40;;;;;;;16.02;12.30;;;;;;;;;;5060365;28;20185;-90
2021/01/01 06:48:06;;;;;;;16.38;12.65;;;;;;;;;;5052497;28;20230;-89
2021/01/01 06:50:33;;;;;;;16.40;13.65;;;;;;;;;;5063264;28;20189;-89
2021/01/01 06:53:03;;;;;;;16.92;13.35;;;;;;;;;;5064781;28;20645;-89
2021/01/01 06:55:33;;;;;;;20.05;13.95;;;;;;;;;;5075164;28;20204;-90
2021/01/01 06:57:59;;;;;;;18.90;13.40;;;;;;;;;;5074216;28;20189;-89
2021/01/01 07:00:44;;;;;;;18.40;14.18;;;;;;;;;;5059185;28;20196;-90
2021/01/01 07:03:42;;;;;;;20.95;12.02;;;;;;;;;;5074829;28;20181;-89
2021/01/01 07:06:08;;;;;;;25.65;15.10;;;;;;;;;;4999115;28;20218;-86
2021/01/01 07:08:40;;;;;;;21.00;14.23;;;;;;;;;;5002000;28;20504;-89
2021/01/01 07:11:12;;;;;;;18.30;12.30;;;;;;;;;;4996173;28;20971;-89
2021/01/01 07:13:40;;;;;;;21.75;12.98;;;;;;;;;;4986590;28;20198;-90
2021/01/01 07:16:06;;;;;;;18.30;13.65;;;;;;;;;;4982790;28;20232;-89
2021/01/01 07:18:32;;;;;;;17.88;13.10;;;;;;;;;;4982023;28;20180;-89
2021/01/01 07:21:00;;;;;;;24.20;14.10;;;;;;;;;;4985453;28;20314;-90
2021/01/01 07:23:27;;;;;;;19.40;12.77;;;;;;;;;;4986073;28;20203;-89
2021/01/01 07:25:53;;;;;;;21.20;13.93;;;;;;;;;;5001830;28;20190;-89
2021/01/01 07:28:19;;;;;;;17.77;12.93;;;;;;;;;;4975070;28;20291;-89
2021/01/01 07:30:45;;;;;;;19.75;14.48;;;;;;;;;;4995387;28;20206;-88
2021/01/01 07:33:11;;;;;;;20.88;14.60;;;;;;;;;;4998287;28;20196;-88
2021/01/01 07:35:49;;;;;;;21.40;13.43;;;;;;;;;;5000787;28;20226;-89
2021/01/01 07:38:15;;;;;;;14.68;12.50;;;;;;;;;;4986954;28;20175;-87
2021/01/01 07:40:42;;;;;;;16.17;12.98;;;;;;;;;;4991423;28;20688;-89
2021/01/01 07:43:09;;;;;;;20.45;13.65;;;;;;;;;;5030144;28;20194;-89
2021/01/01 07:45:35;;;;;;;16.45;13.00;;;;;;;;;;5036219;28;20277;-89
2021/01/01 07:48:01;;;;;;;25.10;14.48;;;;;;;;;;5055260;28;20190;-88
2021/01/01 07:50:30;;;;;;;17.63;13.13;;;;;;;;;;5040998;28;20211;-89
2021/01/01 07:53:03;;;;;;;16.73;13.45;;;;;;;;;;5038437;28;20173;-89
2021/01/01 07:55:29;;;;;;;21.10;13.88;;;;;;;;;;5043189;28;20202;-88
2021/01/01 07:57:59;;;;;;;20.85;14.88;;;;;;;;;;5038220;28;20197;-89
2021/01/01 08:00:28;;;;;;;22.80;13.52;;;;;;;;;;5039238;28;20178;-89
2021/01/01 08:02:55;;;;;;;22.33;13.30;;;;;;;;;;5038093;28;20189;-85
2021/01/01 08:05:21;;;;;;;20.55;15.45;;;;;;;;;;5038605;28;20185;-88
2021/01/01 08:07:47;;;;;;;19.13;13.52;;;;;;;;;;5038329;28;20280;-88
2021/01/01 08:10:13;;;;;;;20.20;12.85;;;;;;;;;;5063247;28;20222;-88
2021/01/01 08:12:39;;;;;;;16.55;12.82;;;;;;;;;;5031227;28;20193;-89
2021/01/01 08:15:05;;;;;;;17.52;13.35;;;;;;;;;;5038675;28;20253;-89
2021/01/01 08:17:31;;;;;;;19.92;14.93;;;;;;;;;;5058392;28;20188;-89
2021/01/01 08:19:57;;;;;;;17.75;12.32;;;;;;;;;;5038130;28;20273;-89
2021/01/01 08:22:32;;;;;;;15.48;12.55;;;;;;;;;;5071026;28;20190;-89
2021/01/01 08:24:59;;;;;;;14.00;11.30;;;;;;;;;;5040256;28;20186;-89
2021/01/01 08:27:25;;;;;;;18.00;14.55;;;;;;;;;;5038696;28;20182;-89
2021/01/01 08:29:53;;;;;;;20.38;13.43;;;;;;;;;;5038609;28;20190;-89
2021/01/01 08:32:19;;;;;;;23.20;15.07;;;;;;;;;;5075430;28;20689;-89
2021/01/01 08:34:52;;;;;;;28.33;17.55;;;;;;;;;;5074000;28;20170;-89
2021/01/01 08:37:19;;;;;;;34.55;18.92;;;;;;;;;;5031651;28;20272;-89
2021/01/01 08:39:45;;;;;;;27.20;19.35;;;;;;;;;;5035439;28;20182;-89
2021/01/01 08:42:13;;;;;;;30.05;21.55;;;;;;;;;;5032671;28;20225;-88
2021/01/01 08:44:41;;;;;;;30.38;20.35;;;;;;;;;;5043609;28;20186;-89
2021/01/01 08:47:07;;;;;;;30.45;18.90;;;;;;;;;;5042003;28;20177;-88
2021/01/01 08:49:33;;;;;;;29.88;20.50;;;;;;;;;;5073592;28;20182;-88
2021/01/01 08:52:09;;;;;;;33.65;19.90;;;;;;;;;;5044158;28;20209;-89
2021/01/01 08:54:35;;;;;;;26.25;18.25;;;;;;;;;;5073182;28;20186;-89
2021/01/01 08:57:01;;;;;;;31.17;18.45;;;;;;;;;;5044319;28;20209;-85
2021/01/01 08:59:28;;;;;;;37.97;16.77;;;;;;;;;;5037278;28;20190;-87
2021/01/01 09:01:54;;;;;;;30.08;18.83;;;;;;;;;;5043006;28;20181;-89
2021/01/01 09:04:27;;;;;;;23.70;16.65;;;;;;;;;;5040475;28;20178;-89
2021/01/01 09:06:56;;;;;;;31.70;20.38;;;;;;;;;;5043720;28;20188;-88
2021/01/01 09:09:26;;;;;;;41.10;27.02;;;;;;;;;;5040763;28;20517;-88
2021/01/01 09:11:52;;;;;;;34.67;23.80;;;;;;;;;;5022625;28;20186;-88
2021/01/01 09:14:18;;;;;;;35.42;24.70;;;;;;;;;;5025418;28;20181;-88
2021/01/01 09:16:44;;;;;;;38.88;26.38;;;;;;;;;;5024995;28;20209;-87
2021/01/01 09:19:11;;;;;;;45.22;29.10;;;;;;;;;;5040186;28;20187;-88
2021/01/01 09:21:36;;;;;;;43.40;27.38;;;;;;;;;;5053268;28;20179;-88
2021/01/01 09:24:03;;;;;;;36.10;26.37;;;;;;;;;;5022300;28;20263;-88
2021/01/01 09:26:29;;;;;;;37.80;28.83;;;;;;;;;;5053860;28;20441;-89
2021/01/01 09:29:01;;;;;;;45.83;26.90;;;;;;;;;;5043715;28;20259;-88
2021/01/01 09:31:28;;;;;;;41.08;28.05;;;;;;;;;;5020694;28;20228;-87
2021/01/01 09:33:58;;;;;;;44.20;30.25;;;;;;;;;;5037759;28;20192;-88
2021/01/01 09:36:24;;;;;;;40.80;28.00;;;;;;;;;;5021339;28;20220;-88
2021/01/01 09:38:50;;;;;;;49.47;28.92;;;;;;;;;;5048328;28;20182;-88
2021/01/01 09:41:16;;;;;;;40.00;26.60;;;;;;;;;;5022446;28;20210;-87
2021/01/01 09:43:43;;;;;;;39.42;26.60;;;;;;;;;;5054514;28;20266;-88
2021/01/01 09:46:09;;;;;;;48.25;28.48;;;;;;;;;;5020120;28;20198;-88
2021/01/01 09:48:35;;;;;;;38.33;26.45;;;;;;;;;;5049960;28;20187;-87
2021/01/01 09:51:01;;;;;;;38.28;24.77;;;;;;;;;;5023725;28;20716;-88
2021/01/01 09:53:27;;;;;;;38.65;27.02;;;;;;;;;;5014845;28;20213;-87
2021/01/01 09:55:53;;;;;;;37.75;23.67;;;;;;;;;;5032269;28;20201;-89
2021/01/01 09:58:19;;;;;;;37.03;23.15;;;;;;;;;;5019017;28;20186;-89
2021/01/01 10:00:45;;;;;;;36.40;22.75;;;;;;;;;;5019672;28;20186;-89
2021/01/01 10:03:12;;;;;;;33.83;21.48;;;;;;;;;;5020561;28;20183;-86
2021/01/01 10:05:37;;;;;;;32.17;21.50;;;;;;;;;;5012835;28;20273;-88
2021/01/01 10:08:03;;;;;;;31.30;21.27;;;;;;;;;;5019728;28;20195;-86
2021/01/01 10:10:32;;;;;;;34.70;22.42;;;;;;;;;;5029024;28;20480;-89
2021/01/01 10:12:59;;;;;;;27.42;21.45;;;;;;;;;;5042388;28;20178;-87
2021/01/01 10:15:25;;;;;;;28.00;20.85;;;;;;;;;;5066964;28;20201;-87
2021/01/01 10:17:51;;;;;;;37.35;21.48;;;;;;;;;;5047925;28;20192;-87
2021/01/01 10:20:17;;;;;;;30.92;21.50;;;;;;;;;;5072479;28;20166;-87
2021/01/01 10:22:43;;;;;;;33.25;20.23;;;;;;;;;;5064781;28;20174;-87
2021/01/01 10:25:09;;;;;;;27.50;18.02;;;;;;;;;;5070630;28;20186;-87
2021/01/01 10:27:35;;;;;;;25.55;16.25;;;;;;;;;;5066184;28;20190;-84
2021/01/01 10:30:01;;;;;;;14.63;10.57;;;;;;;;;;5040919;28;20258;-87
2021/01/01 10:32:27;;;;;;;17.70;11.02;;;;;;;;;;5033692;28;20185;-87
2021/01/01 10:34:53;;;;;;;14.73;11.05;;;;;;;;;;5038875;28;20209;-87
2021/01/01 10:37:19;;;;;;;17.63;12.20;;;;;;;;;;5074510;28;20198;-86
2021/01/01 10:39:56;;;;;;;12.52;9.70;;;;;;;;;;5018609;28;20239;-86
2021/01/01 10:42:26;;;;;;;15.57;10.95;;;;;;;;;;5037493;28;20189;-87
2021/01/01 10:44:52;;;;;;;15.13;10.05;;;;;;;;;;5042737;28;20184;-86
2021/01/01 10:47:18;;;;;;;13.70;10.35;;;;;;;;;;5059761;28;20258;-87
2021/01/01 10:49:44;;;;;;;15.05;10.93;;;;;;;;;;5038089;28;20190;-84
2021/01/01 10:52:10;;;;;;;14.77;10.43;;;;;;;;;;5035726;28;20193;-88
2021/01/01 10:54:35;;;;;;;15.57;11.30;;;;;;;;;;5036200;28;20256;-87
2021/01/01 10:57:01;;;;;;;13.20;10.32;;;;;;;;;;5069626;28;20515;-87
2021/01/01 10:59:27;;;;;;;11.75;9.93;;;;;;;;;;5040570;28;20200;-86
2021/01/01 11:01:54;;;;;;;18.35;11.05;;;;;;;;;;5047270;28;20181;-87
2021/01/01 11:04:20;;;;;;;15.27;13.07;;;;;;;;;;5040141;28;20182;-87
2021/01/01 11:06:46;;;;;;;12.10;9.05;;;;;;;;;;5037795;28;20192;-87
2021/01/01 11:09:12;;;;;;;13.85;10.20;;;;;;;;;;5038483;28;20258;-86
2021/01/01 11:11:38;;;;;;;13.63;10.07;;;;;;;;;;5071350;28;20204;-86
2021/01/01 11:14:12;;;;;;;10.15;7.85;;;;;;;;;;5043373;28;20185;-85
2021/01/01 12:25:27;;;;;;;4.95;3.80;;;;;;;;;;5061931;28;20226;-84
2021/01/01 12:27:55;;;;;;;3.72;3.03;;;;;;;;;;5041944;28;20562;-84
2021/01/01 12:30:23;;;;;;;4.82;3.30;;;;;;;;;;5062262;28;20185;-85
2021/01/01 12:32:50;;;;;;;3.55;3.25;;;;;;;;;;5064114;28;20288;-85
2021/01/01 12:35:16;;;;;;;4.85;3.80;;;;;;;;;;5062844;28;20223;-85
2021/01/01 12:37:42;;;;;;;3.17;2.70;;;;;;;;;;5063451;28;20161;-84
2021/01/01 12:40:09;;;;;;;3.78;3.30;;;;;;;;;;5057217;28;20193;-84
2021/01/01 12:42:36;;;;;;;3.50;3.20;;;;;;;;;;5039636;28;20573;-82
2021/01/01 12:45:02;;;;;;;4.03;2.70;;;;;;;;;;5064201;28;20627;-84
2021/01/01 12:47:30;;;;;;;3.55;2.90;;;;;;;;;;5070616;28;20188;-84
2021/01/01 12:49:56;;;;;;;2.95;2.63;;;;;;;;;;5043206;28;20189;-84
2021/01/01 12:52:22;;;;;;;2.83;2.57;;;;;;;;;;5055380;28;20190;-84
2021/01/01 12:54:48;;;;;;;4.57;3.75;;;;;;;;;;5043308;28;20767;-85
2021/01/01 12:57:14;;;;;;;2.78;2.58;;;;;;;;;;5045896;28;20213;-87
2021/01/01 12:59:40;;;;;;;2.03;1.92;;;;;;;;;;5045664;28;20277;-87
2021/01/01 13:02:06;;;;;;;3.45;2.33;;;;;;;;;;5080545;28;20181;-85
2021/01/01 13:04:32;;;;;;;4.00;3.50;;;;;;;;;;5045787;28;20173;-85
2021/01/01 13:06:59;;;;;;;2.65;2.28;;;;;;;;;;5056927;28;20509;-84
2021/01/01 13:09:25;;;;;;;3.13;2.75;;;;;;;;;;5083012;28;20224;-85
2021/01/01 13:11:51;;;;;;;6.32;4.68;;;;;;;;;;5075529;28;20188;-85
2021/01/01 13:14:17;;;;;;;3.80;3.40;;;;;;;;;;5059366;28;20189;-84
2021/01/01 13:16:43;;;;;;;4.63;2.90;;;;;;;;;;5047069;28;20196;-84
2021/01/01 13:19:10;;;;;;;3.50;2.50;;;;;;;;;;5079650;28;20204;-85
2021/01/01 13:21:37;;;;;;;4.40;3.65;;;;;;;;;;5064848;28;20264;-85
2021/01/01 13:24:04;;;;;;;4.50;3.10;;;;;;;;;;5063079;28;20199;-85
2021/01/01 13:26:30;;;;;;;4.30;3.40;;;;;;;;;;5044531;28;20181;-84
2021/01/01 13:28:56;;;;;;;3.72;3.42;;;;;;;;;;5077897;28;20189;-85
2021/01/01 13:31:23;;;;;;;6.00;5.40;;;;;;;;;;5058151;28;20187;-85
2021/01/01 13:33:50;;;;;;;5.30;4.40;;;;;;;;;;5043996;28;20215;-85
2021/01/01 13:36:17;;;;;;;10.00;6.57;;;;;;;;;;5058749;28;20740;-84
2021/01/01 13:38:43;;;;;;;4.10;3.58;;;;;;;;;;5072025;28;20204;-86
2021/01/01 13:41:10;;;;;;;6.20;3.60;;;;;;;;;;5045679;28;20272;-84
2021/01/01 13:43:39;;;;;;;4.45;4.05;;;;;;;;;;5060363;28;20173;-88
2021/01/01 13:46:05;;;;;;;4.05;3.70;;;;;;;;;;5062552;28;20708;-88
2021/01/01 13:48:32;;;;;;;5.53;4.95;;;;;;;;;;5043079;28;20271;-85
2021/01/01 13:50:58;;;;;;;6.25;4.88;;;;;;;;;;5057865;28;20181;-84
2021/01/01 13:53:24;;;;;;;5.60;4.13;;;;;;;;;;5074175;28;20178;-85
2021/01/01 13:55:50;;;;;;;4.38;3.95;;;;;;;;;;5057439;28;20463;-85
2021/01/01 13:58:17;;;;;;;5.30;4.13;;;;;;;;;;5071218;28;20205;-85
2021/01/01 14:00:43;;;;;;;4.60;4.20;;;;;;;;;;5044804;28;20176;-86
2021/01/01 14:03:09;;;;;;;6.70;5.40;;;;;;;;;;5043156;28;20228;-84
2021/01/01 14:05:35;;;;;;;4.55;3.20;;;;;;;;;;5064751;28;20184;-85
2021/01/01 14:08:01;;;;;;;6.00;3.53;;;;;;;;;;5035027;28;20210;-85
2021/01/01 14:10:27;;;;;;;8.05;6.85;;;;;;;;;;5062396;28;20882;-85
2021/01/01 14:12:53;;;;;;;7.63;6.73;;;;;;;;;;5062462;28;20193;-85
2021/01/01 14:15:19;;;;;;;11.10;5.20;;;;;;;;;;5063382;28;20584;-85
2021/01/01 14:17:45;;;;;;;5.93;3.47;;;;;;;;;;5063115;28;20462;-85
2021/01/01 14:20:11;;;;;;;3.27;3.00;;;;;;;;;;5079536;28;20523;-86
2021/01/01 14:22:37;;;;;;;3.85;3.22;;;;;;;;;;5041394;28;20456;-86
2021/01/01 14:25:03;;;;;;;3.63;3.33;;;;;;;;;;5079513;28;20611;-86
2021/01/01 14:27:29;;;;;;;3.75;3.35;;;;;;;;;;5061329;28;20219;-85
2021/01/01 14:29:55;;;;;;;4.10;3.70;;;;;;;;;;5045369;28;20209;-85
2021/01/01 14:32:21;;;;;;;5.40;4.87;;;;;;;;;;5064209;28;20423;-84
2021/01/01 14:34:47;;;;;;;6.40;4.05;;;;;;;;;;5041333;28;20419;-85
2021/01/01 14:37:13;;;;;;;6.10;4.50;;;;;;;;;;5063118;28;20207;-85
2021/01/01 14:39:39;;;;;;;4.75;4.07;;;;;;;;;;5060993;28;20450;-87
2021/01/01 14:42:06;;;;;;;3.53;3.22;;;;;;;;;;5063590;28;20181;-85
2021/01/01 14:44:32;;;;;;;5.78;4.63;;;;;;;;;;5063214;28;20188;-84
2021/01/01 14:46:58;;;;;;;4.18;3.78;;;;;;;;;;5063810;28;20177;-86
2021/01/01 14:49:25;;;;;;;3.95;3.42;;;;;;;;;;5062143;28;20283;-85
2021/01/01 14:51:51;;;;;;;5.60;4.10;;;;;;;;;;5061708;28;20616;-84
2021/01/01 14:54:17;;;;;;;4.15;3.75;;;;;;;;;;5059646;28;20238;-86
2021/01/01 14:56:43;;;;;;;4.03;3.53;;;;;;;;;;5044653;28;20193;-85
2021/01/01 14:59:09;;;;;;;4.25;3.85;;;;;;;;;;5062965;28;20192;-84
2021/01/01 15:01:36;;;;;;;5.43;4.05;;;;;;;;;;5063856;28;20184;-85
2021/01/01 15:04:05;;;;;;;5.28;4.28;;;;;;;;;;5063319;28;20662;-86
2021/01/01 15:06:31;;;;;;;6.57;5.22;;;;;;;;;;5059893;28;20263;-85
2021/01/01 15:08:58;;;;;;;4.93;3.67;;;;;;;;;;5077641;28;20216;-85
2021/01/01 15:11:24;;;;;;;6.32;4.10;;;;;;;;;;5077885;28;20188;-85
2021/01/01 15:13:50;;;;;;;5.00;4.18;;;;;;;;;;5041496;28;20183;-85
2021/01/01 15:16:16;;;;;;;4.57;3.88;;;;;;;;;;5078134;28;20227;-85
2021/01/01 15:18:42;;;;;;;4.65;4.20;;;;;;;;;;5060800;28;20181;-85
2021/01/01 15:21:08;;;;;;;4.90;3.70;;;;;;;;;;5041799;28;20269;-82
2021/01/01 15:23:35;;;;;;;4.28;3.22;;;;;;;;;;5078454;28;20473;-85
2021/01/01 15:26:01;;;;;;;3.88;3.25;;;;;;;;;;5063882;28;20199;-85
2021/01/01 15:28:27;;;;;;;5.07;4.43;;;;;;;;;;5059893;28;20265;-85
2021/01/01 15:30:53;;;;;;;4.82;3.45;;;;;;;;;;5061966;28;20245;-85